sensor_id;sensor_type;location;lat;lon;timestamp;pressure;altitude;pressure_sealevel;temperature;humidity
76460;BME280;65299;46.084;18.762;2024-01-25T08:15:16;101284.53;;;8.07;65.64
76460;BME280;65299;46.084;18.762;2024-01-25T08:18:17;101288.22;;;8.54;63.94
76460;BME280;65299;46.084;18.762;2024-01-25T08:21:19;101282.53;;;8.69;63.27
76460;BME280;65299;46.084;18.762;2024-01-25T08:24:19;101278.63;;;8.71;62.92
76460;BME280;65299;46.084;18.762;2024-01-25T08:27:20;101282.00;;;8.90;62.98
76460;BME280;65299;46.084;18.762;2024-01-25T08:30:20;101285.44;;;8.79;63.13
76460;BME280;65299;46.084;18.762;2024-01-25T08:33:20;101282.88;;;8.72;63.59
76460;BME280;65299;46.084;18.762;2024-01-25T08:36:21;101292.06;;;8.70;64.33
76460;BME280;65299;46.084;18.762;2024-01-25T08:39:22;101288.19;;;8.84;63.38
76460;BME280;65299;46.084;18.762;2024-01-25T08:42:25;101287.78;;;8.98;63.46
76460;BME280;65299;46.084;18.762;2024-01-25T08:45:26;101285.41;;;9.32;63.06
76460;BME280;65299;46.084;18.762;2024-01-25T08:48:26;101305.44;;;9.62;62.22
76460;BME280;65299;46.084;18.762;2024-01-25T08:51:27;101312.47;;;9.68;60.57
76460;BME280;65299;46.084;18.762;2024-01-25T08:54:27;101314.41;;;9.84;59.96
76460;BME280;65299;46.084;18.762;2024-01-25T08:57:28;101321.53;;;10.07;59.76
76460;BME280;65299;46.084;18.762;2024-01-25T09:00:28;101319.16;;;9.71;59.92
76460;BME280;65299;46.084;18.762;2024-01-25T09:03:29;101324.28;;;10.00;60.05
76460;BME280;65299;46.084;18.762;2024-01-25T09:06:29;101322.56;;;10.18;58.27
76460;BME280;65299;46.084;18.762;2024-01-25T09:09:30;101309.47;;;10.39;56.94
76460;BME280;65299;46.084;18.762;2024-01-25T09:12:30;101304.22;;;10.56;56.70
76460;BME280;65299;46.084;18.762;2024-01-25T09:15:31;101303.72;;;10.87;56.12
76460;BME280;65299;46.084;18.762;2024-01-25T09:18:31;101303.50;;;11.05;54.66
76460;BME280;65299;46.084;18.762;2024-01-25T09:21:32;101299.03;;;10.94;54.70
76460;BME280;65299;46.084;18.762;2024-01-25T09:24:32;101310.72;;;11.10;53.66
76460;BME280;65299;46.084;18.762;2024-01-25T09:27:36;101313.53;;;11.36;53.79
76460;BME280;65299;46.084;18.762;2024-01-25T09:30:39;101318.69;;;11.26;52.82
76460;BME280;65299;46.084;18.762;2024-01-25T09:33:39;101334.47;;;11.49;52.85
76460;BME280;65299;46.084;18.762;2024-01-25T09:36:40;101325.63;;;11.60;52.77
76460;BME280;65299;46.084;18.762;2024-01-25T09:39:40;101333.25;;;11.74;51.66
76460;BME280;65299;46.084;18.762;2024-01-25T09:42:41;101342.75;;;11.86;51.85
76460;BME280;65299;46.084;18.762;2024-01-25T09:45:41;101350.72;;;11.86;51.65
76460;BME280;65299;46.084;18.762;2024-01-25T09:48:46;101348.22;;;11.96;50.89
76460;BME280;65299;46.084;18.762;2024-01-25T09:51:50;101350.47;;;11.88;51.36
76460;BME280;65299;46.084;18.762;2024-01-25T09:54:53;101352.59;;;11.86;51.31
76460;BME280;65299;46.084;18.762;2024-01-25T09:57:54;101352.28;;;12.04;51.07
76460;BME280;65299;46.084;18.762;2024-01-25T10:01:00;101344.88;;;11.68;51.42
76460;BME280;65299;46.084;18.762;2024-01-25T10:04:00;101347.59;;;11.56;50.42
76460;BME280;65299;46.084;18.762;2024-01-25T10:07:01;101338.00;;;11.55;50.52
76460;BME280;65299;46.084;18.762;2024-01-25T10:10:01;101343.81;;;11.52;51.48
76460;BME280;65299;46.084;18.762;2024-01-25T10:13:02;101326.09;;;11.24;51.51
76460;BME280;65299;46.084;18.762;2024-01-25T10:16:02;101327.56;;;11.32;50.20
76460;BME280;65299;46.084;18.762;2024-01-25T10:19:06;101327.13;;;11.56;50.80
76460;BME280;65299;46.084;18.762;2024-01-25T10:22:07;101331.31;;;11.69;50.71
76460;BME280;65299;46.084;18.762;2024-01-25T10:25:13;101319.25;;;11.78;49.93
76460;BME280;65299;46.084;18.762;2024-01-25T10:28:16;101338.47;;;11.85;50.07
76460;BME280;65299;46.084;18.762;2024-01-25T10:31:17;101333.47;;;11.89;50.65
76460;BME280;65299;46.084;18.762;2024-01-25T10:34:18;101330.41;;;11.97;50.33
76460;BME280;65299;46.084;18.762;2024-01-25T10:37:19;101321.66;;;12.01;50.63
76460;BME280;65299;46.084;18.762;2024-01-25T10:40:21;101316.53;;;12.16;50.14
76460;BME280;65299;46.084;18.762;2024-01-25T10:43:21;101311.63;;;12.30;47.56
76460;BME280;65299;46.084;18.762;2024-01-25T10:46:22;101287.03;;;12.44;47.63
76460;BME280;65299;46.084;18.762;2024-01-25T10:49:24;101289.78;;;12.28;45.12
76460;BME280;65299;46.084;18.762;2024-01-25T10:52:25;101282.28;;;12.46;45.53
76460;BME280;65299;46.084;18.762;2024-01-25T10:55:27;101284.75;;;12.53;46.50
76460;BME280;65299;46.084;18.762;2024-01-25T10:58:40;101276.72;;;12.48;45.59
76460;BME280;65299;46.084;18.762;2024-01-25T11:01:46;101273.59;;;12.56;46.58
76460;BME280;65299;46.084;18.762;2024-01-25T11:04:54;101266.75;;;12.65;46.92
76460;BME280;65299;46.084;18.762;2024-01-25T11:07:55;101253.97;;;12.62;44.48
76460;BME280;65299;46.084;18.762;2024-01-25T11:10:56;101262.50;;;12.96;45.34
76460;BME280;65299;46.084;18.762;2024-01-25T11:13:58;101244.09;;;12.94;43.71
76460;BME280;65299;46.084;18.762;2024-01-25T11:17:15;101250.38;;;13.10;43.74
76460;BME280;65299;46.084;18.762;2024-01-25T11:20:15;101249.94;;;13.23;45.11
76460;BME280;65299;46.084;18.762;2024-01-25T11:23:16;101251.88;;;13.32;45.31
76460;BME280;65299;46.084;18.762;2024-01-25T11:26:17;101263.03;;;13.29;45.38
76460;BME280;65299;46.084;18.762;2024-01-25T11:29:19;101261.69;;;12.95;45.44
76460;BME280;65299;46.084;18.762;2024-01-25T11:32:22;101274.97;;;13.17;44.35
76460;BME280;65299;46.084;18.762;2024-01-25T11:35:22;101268.13;;;13.36;45.29
76460;BME280;65299;46.084;18.762;2024-01-25T11:38:23;101264.97;;;13.39;46.36
76460;BME280;65299;46.084;18.762;2024-01-25T11:41:23;101267.31;;;13.30;46.42
76460;BME280;65299;46.084;18.762;2024-01-25T11:44:24;101255.47;;;12.85;45.09
76460;BME280;65299;46.084;18.762;2024-01-25T11:47:24;101269.59;;;12.85;44.53
76460;BME280;65299;46.084;18.762;2024-01-25T11:50:25;101275.84;;;12.69;46.00
76460;BME280;65299;46.084;18.762;2024-01-25T11:53:25;101281.25;;;12.52;46.49
76460;BME280;65299;46.084;18.762;2024-01-25T11:56:28;101282.63;;;12.28;47.17
76460;BME280;65299;46.084;18.762;2024-01-25T11:59:30;101283.53;;;12.39;48.33
76460;BME280;65299;46.084;18.762;2024-01-25T12:02:31;101273.59;;;12.08;48.00
76460;BME280;65299;46.084;18.762;2024-01-25T12:05:32;101270.97;;;11.91;47.59
76460;BME280;65299;46.084;18.762;2024-01-25T12:08:32;101265.69;;;12.13;49.25
76460;BME280;65299;46.084;18.762;2024-01-25T12:11:36;101269.16;;;12.13;49.17
76460;BME280;65299;46.084;18.762;2024-01-25T12:14:36;101262.78;;;11.93;46.85
76460;BME280;65299;46.084;18.762;2024-01-25T12:17:37;101271.44;;;12.05;46.10
76460;BME280;65299;46.084;18.762;2024-01-25T12:20:39;101261.94;;;12.14;46.44
76460;BME280;65299;46.084;18.762;2024-01-25T12:23:40;101240.72;;;12.19;46.92
76460;BME280;65299;46.084;18.762;2024-01-25T12:26:43;101246.69;;;12.04;45.31
76460;BME280;65299;46.084;18.762;2024-01-25T12:29:44;101237.00;;;12.20;45.91
76460;BME280;65299;46.084;18.762;2024-01-25T12:32:44;101247.19;;;12.28;46.33
76460;BME280;65299;46.084;18.762;2024-01-25T12:35:47;101235.63;;;12.39;46.23
76460;BME280;65299;46.084;18.762;2024-01-25T12:38:48;101229.28;;;12.45;46.52
76460;BME280;65299;46.084;18.762;2024-01-25T12:41:48;101229.38;;;12.28;48.07
76460;BME280;65299;46.084;18.762;2024-01-25T12:44:52;101241.56;;;12.24;45.51
76460;BME280;65299;46.084;18.762;2024-01-25T12:47:53;101244.97;;;12.20;45.84
76460;BME280;65299;46.084;18.762;2024-01-25T12:50:54;101225.13;;;12.06;45.71
76460;BME280;65299;46.084;18.762;2024-01-25T12:53:54;101243.88;;;12.16;45.43
76460;BME280;65299;46.084;18.762;2024-01-25T12:56:54;101235.31;;;12.35;45.47
76460;BME280;65299;46.084;18.762;2024-01-25T12:59:55;101231.66;;;12.73;45.81
76460;BME280;65299;46.084;18.762;2024-01-25T13:02:55;101235.09;;;12.42;46.29
76460;BME280;65299;46.084;18.762;2024-01-25T13:05:57;101235.88;;;12.69;46.37
76460;BME280;65299;46.084;18.762;2024-01-25T13:08:57;101246.34;;;12.76;46.88
76460;BME280;65299;46.084;18.762;2024-01-25T13:11:57;101245.63;;;12.59;46.00
76460;BME280;65299;46.084;18.762;2024-01-25T13:14:58;101246.91;;;12.83;45.28
76460;BME280;65299;46.084;18.762;2024-01-25T13:17:58;101246.50;;;12.64;46.08
76460;BME280;65299;46.084;18.762;2024-01-25T13:21:01;101248.38;;;12.64;46.29
76460;BME280;65299;46.084;18.762;2024-01-25T13:24:01;101243.50;;;12.56;45.33
76460;BME280;65299;46.084;18.762;2024-01-25T13:27:02;101247.75;;;12.57;45.33
76460;BME280;65299;46.084;18.762;2024-01-25T13:30:05;101260.97;;;12.46;44.54
76460;BME280;65299;46.084;18.762;2024-01-25T13:33:06;101266.09;;;12.53;43.57
76460;BME280;65299;46.084;18.762;2024-01-25T13:36:07;101261.59;;;12.54;43.45
76460;BME280;65299;46.084;18.762;2024-01-25T13:39:09;101250.38;;;12.52;44.25
76460;BME280;65299;46.084;18.762;2024-01-25T13:42:10;101243.75;;;12.54;44.49
76460;BME280;65299;46.084;18.762;2024-01-25T13:45:10;101243.75;;;12.86;44.13
76460;BME280;65299;46.084;18.762;2024-01-25T13:48:11;101239.78;;;12.88;44.86
76460;BME280;65299;46.084;18.762;2024-01-25T13:51:12;101233.28;;;12.74;45.84
76460;BME280;65299;46.084;18.762;2024-01-25T13:54:12;101225.25;;;12.69;46.62
76460;BME280;65299;46.084;18.762;2024-01-25T13:57:13;101225.97;;;12.33;47.13
76460;BME280;65299;46.084;18.762;2024-01-25T14:00:14;101239.91;;;12.18;47.47
76460;BME280;65299;46.084;18.762;2024-01-25T14:03:15;101231.81;;;12.08;47.49
76460;BME280;65299;46.084;18.762;2024-01-25T14:06:17;101222.25;;;12.07;47.80
76460;BME280;65299;46.084;18.762;2024-01-25T14:09:17;101229.59;;;12.00;48.36
76460;BME280;65299;46.084;18.762;2024-01-25T14:12:18;101231.28;;;12.06;49.19
76460;BME280;65299;46.084;18.762;2024-01-25T14:15:18;101215.81;;;11.82;49.53
76460;BME280;65299;46.084;18.762;2024-01-25T14:18:18;101224.25;;;11.57;48.82
76460;BME280;65299;46.084;18.762;2024-01-25T14:21:19;101234.72;;;11.63;49.62
76460;BME280;65299;46.084;18.762;2024-01-25T14:24:21;101240.53;;;11.60;49.56
76460;BME280;65299;46.084;18.762;2024-01-25T14:27:21;101243.28;;;11.49;47.15
76460;BME280;65299;46.084;18.762;2024-01-25T14:30:22;101243.97;;;11.61;47.33
76460;BME280;65299;46.084;18.762;2024-01-25T14:33:22;101232.41;;;11.50;48.63
76460;BME280;65299;46.084;18.762;2024-01-25T14:36:23;101231.81;;;11.27;50.43
76460;BME280;65299;46.084;18.762;2024-01-25T14:39:23;101226.44;;;11.05;51.18
76460;BME280;65299;46.084;18.762;2024-01-25T14:42:23;101234.47;;;10.94;50.90
76460;BME280;65299;46.084;18.762;2024-01-25T14:45:24;101237.31;;;10.87;50.11
76460;BME280;65299;46.084;18.762;2024-01-25T14:48:24;101234.31;;;11.00;49.24
76460;BME280;65299;46.084;18.762;2024-01-25T14:51:25;101245.50;;;11.02;49.38
76460;BME280;65299;46.084;18.762;2024-01-25T14:54:25;101254.44;;;10.96;49.36
76460;BME280;65299;46.084;18.762;2024-01-25T14:57:26;101252.09;;;11.00;49.08
76460;BME280;65299;46.084;18.762;2024-01-25T15:00:26;101258.53;;;11.04;49.01
76460;BME280;65299;46.084;18.762;2024-01-25T15:03:27;101263.53;;;11.00;49.50
76460;BME280;65299;46.084;18.762;2024-01-25T15:06:27;101260.88;;;11.17;48.99
76460;BME280;65299;46.084;18.762;2024-01-25T15:09:27;101265.47;;;11.05;49.12
76460;BME280;65299;46.084;18.762;2024-01-25T15:12:28;101261.84;;;11.11;49.12
76460;BME280;65299;46.084;18.762;2024-01-25T15:15:28;101264.03;;;10.97;49.46
76460;BME280;65299;46.084;18.762;2024-01-25T15:18:29;101266.69;;;10.80;49.33
76460;BME280;65299;46.084;18.762;2024-01-25T15:21:29;101269.34;;;10.80;49.17
76460;BME280;65299;46.084;18.762;2024-01-25T15:24:29;101270.31;;;10.74;49.28
76460;BME280;65299;46.084;18.762;2024-01-25T15:27:32;101280.25;;;10.67;49.56
76460;BME280;65299;46.084;18.762;2024-01-25T15:30:32;101276.03;;;10.38;50.40
76460;BME280;65299;46.084;18.762;2024-01-25T15:33:33;101280.31;;;10.28;50.55
76460;BME280;65299;46.084;18.762;2024-01-25T15:36:33;101275.81;;;10.28;50.87
76460;BME280;65299;46.084;18.762;2024-01-25T15:39:35;101278.63;;;10.10;51.38
76460;BME280;65299;46.084;18.762;2024-01-25T15:42:36;101271.13;;;10.07;51.24
76460;BME280;65299;46.084;18.762;2024-01-25T15:45:38;101284.84;;;10.04;51.05
76460;BME280;65299;46.084;18.762;2024-01-25T15:48:38;101287.28;;;10.06;51.34
76460;BME280;65299;46.084;18.762;2024-01-25T15:51:38;101283.38;;;9.96;50.95
76460;BME280;65299;46.084;18.762;2024-01-25T16:06:13;101308.38;;;10.00;50.97
76460;BME280;65299;46.084;18.762;2024-01-25T16:09:14;101302.06;;;10.01;51.16
76460;BME280;65299;46.084;18.762;2024-01-25T16:12:14;101307.59;;;9.88;51.32
76460;BME280;65299;46.084;18.762;2024-01-25T16:15:14;101305.44;;;9.74;51.44
76460;BME280;65299;46.084;18.762;2024-01-25T16:18:16;101311.53;;;9.74;51.61
76460;BME280;65299;46.084;18.762;2024-01-25T16:21:17;101319.03;;;9.66;52.25
76460;BME280;65299;46.084;18.762;2024-01-25T16:24:17;101315.25;;;9.50;52.22
76460;BME280;65299;46.084;18.762;2024-01-25T16:27:18;101320.06;;;9.53;52.25
76460;BME280;65299;46.084;18.762;2024-01-25T16:30:19;101318.44;;;9.41;52.96
76460;BME280;65299;46.084;18.762;2024-01-25T16:33:19;101320.97;;;9.47;52.36
76460;BME280;65299;46.084;18.762;2024-01-25T16:36:20;101321.31;;;9.28;52.84
76460;BME280;65299;46.084;18.762;2024-01-25T16:39:20;101321.31;;;9.28;53.23
76460;BME280;65299;46.084;18.762;2024-01-25T16:42:20;101327.41;;;9.16;53.04
76460;BME280;65299;46.084;18.762;2024-01-25T16:45:21;101322.81;;;9.12;53.07
76460;BME280;65299;46.084;18.762;2024-01-25T16:48:21;101329.47;;;9.14;53.46
76460;BME280;65299;46.084;18.762;2024-01-25T16:51:22;101338.22;;;9.15;53.21
76460;BME280;65299;46.084;18.762;2024-01-25T16:54:22;101335.44;;;8.98;53.21
76460;BME280;65299;46.084;18.762;2024-01-25T16:57:22;101331.84;;;8.93;53.35
76460;BME280;65299;46.084;18.762;2024-01-25T17:00:23;101331.38;;;8.96;53.44
76460;BME280;65299;46.084;18.762;2024-01-25T17:03:25;101337.63;;;9.01;52.98
76460;BME280;65299;46.084;18.762;2024-01-25T17:06:25;101345.78;;;9.00;53.03
76460;BME280;65299;46.084;18.762;2024-01-25T17:09:26;101336.81;;;9.01;53.23
76460;BME280;65299;46.084;18.762;2024-01-25T17:12:27;101337.06;;;8.99;53.12
76460;BME280;65299;46.084;18.762;2024-01-25T17:15:27;101347.97;;;8.91;53.34
76460;BME280;65299;46.084;18.762;2024-01-25T17:18:27;101350.22;;;8.88;53.45
76460;BME280;65299;46.084;18.762;2024-01-25T17:21:28;101351.41;;;8.92;53.44
76460;BME280;65299;46.084;18.762;2024-01-25T17:24:29;101353.06;;;9.04;53.11
76460;BME280;65299;46.084;18.762;2024-01-25T17:27:29;101359.47;;;8.85;53.16
76460;BME280;65299;46.084;18.762;2024-01-25T17:30:30;101362.47;;;8.89;53.04
76460;BME280;65299;46.084;18.762;2024-01-25T17:33:30;101362.28;;;9.02;52.68
76460;BME280;65299;46.084;18.762;2024-01-25T17:36:33;101367.09;;;9.05;52.75
76460;BME280;65299;46.084;18.762;2024-01-25T17:39:33;101371.25;;;9.12;52.79
76460;BME280;65299;46.084;18.762;2024-01-25T17:42:34;101371.25;;;9.01;53.05
76460;BME280;65299;46.084;18.762;2024-01-25T17:45:34;101378.38;;;9.00;53.23
76460;BME280;65299;46.084;18.762;2024-01-25T17:48:34;101379.03;;;8.96;53.04
76460;BME280;65299;46.084;18.762;2024-01-25T17:51:36;101378.41;;;8.82;54.05
76460;BME280;65299;46.084;18.762;2024-01-25T17:54:36;101383.88;;;8.87;53.53
76460;BME280;65299;46.084;18.762;2024-01-25T17:57:36;101381.41;;;8.86;53.22
76460;BME280;65299;46.084;18.762;2024-01-25T18:00:37;101385.69;;;8.87;52.99
76460;BME280;65299;46.084;18.762;2024-01-25T18:03:37;101388.97;;;9.00;52.63
76460;BME280;65299;46.084;18.762;2024-01-25T18:06:38;101393.97;;;8.90;52.33
76460;BME280;65299;46.084;18.762;2024-01-25T18:09:38;101391.25;;;8.97;52.26
76460;BME280;65299;46.084;18.762;2024-01-25T18:12:39;101388.88;;;9.07;52.08
76460;BME280;65299;46.084;18.762;2024-01-25T18:15:39;101393.97;;;8.90;52.29
76460;BME280;65299;46.084;18.762;2024-01-25T18:18:39;101389.47;;;8.79;52.88
76460;BME280;65299;46.084;18.762;2024-01-25T18:21:42;101393.13;;;8.78;52.63
76460;BME280;65299;46.084;18.762;2024-01-25T18:24:43;101396.00;;;8.77;52.50
76460;BME280;65299;46.084;18.762;2024-01-25T18:27:44;101393.44;;;8.70;52.88
76460;BME280;65299;46.084;18.762;2024-01-25T18:30:44;101406.75;;;8.64;53.37
76460;BME280;65299;46.084;18.762;2024-01-25T18:33:45;101400.00;;;8.50;53.69
76460;BME280;65299;46.084;18.762;2024-01-25T18:36:45;101398.44;;;8.24;54.36
76460;BME280;65299;46.084;18.762;2024-01-25T18:39:46;101390.41;;;8.12;54.94
76460;BME280;65299;46.084;18.762;2024-01-25T18:42:46;101393.63;;;7.96;55.34
76460;BME280;65299;46.084;18.762;2024-01-25T18:45:47;101391.75;;;8.03;55.37
76460;BME280;65299;46.084;18.762;2024-01-25T18:48:48;101374.72;;;7.99;54.95
76460;BME280;65299;46.084;18.762;2024-01-25T18:51:48;101374.72;;;7.99;55.16
76460;BME280;65299;46.084;18.762;2024-01-25T18:54:49;101373.84;;;8.05;54.80
76460;BME280;65299;46.084;18.762;2024-01-25T18:57:50;101366.34;;;8.20;54.04
76460;BME280;65299;46.084;18.762;2024-01-25T19:00:52;101374.06;;;8.22;53.58
76460;BME280;65299;46.084;18.762;2024-01-25T19:03:52;101380.03;;;8.35;53.16
76460;BME280;65299;46.084;18.762;2024-01-25T19:06:55;101364.50;;;8.57;52.52
76460;BME280;65299;46.084;18.762;2024-01-25T19:09:56;101366.28;;;8.63;52.48
76460;BME280;65299;46.084;18.762;2024-01-25T19:12:56;101378.84;;;8.50;52.77
76460;BME280;65299;46.084;18.762;2024-01-25T19:15:57;101379.13;;;8.60;52.62
76460;BME280;65299;46.084;18.762;2024-01-25T19:18:57;101382.75;;;8.65;52.39
76460;BME280;65299;46.084;18.762;2024-01-25T19:21:58;101370.69;;;8.69;52.11
76460;BME280;65299;46.084;18.762;2024-01-25T19:24:59;101378.19;;;8.84;51.97
76460;BME280;65299;46.084;18.762;2024-01-25T19:27:59;101394.31;;;8.82;52.05
76460;BME280;65299;46.084;18.762;2024-01-25T19:30:59;101392.25;;;8.84;51.65
76460;BME280;65299;46.084;18.762;2024-01-25T19:34:00;101402.03;;;8.66;52.32
76460;BME280;65299;46.084;18.762;2024-01-25T19:37:00;101387.44;;;8.63;51.85
76460;BME280;65299;46.084;18.762;2024-01-25T19:40:01;101387.22;;;8.65;51.53
76460;BME280;65299;46.084;18.762;2024-01-25T19:43:01;101390.84;;;8.82;51.38
76460;BME280;65299;46.084;18.762;2024-01-25T19:46:01;101381.97;;;8.76;51.28
76460;BME280;65299;46.084;18.762;2024-01-25T19:49:02;101381.41;;;8.86;50.29
76460;BME280;65299;46.084;18.762;2024-01-25T19:52:03;101380.94;;;9.07;50.30
76460;BME280;65299;46.084;18.762;2024-01-25T19:55:04;101380.19;;;9.00;50.72
76460;BME280;65299;46.084;18.762;2024-01-25T19:58:06;101380.66;;;8.97;50.63
76460;BME280;65299;46.084;18.762;2024-01-25T20:01:07;101381.88;;;8.83;50.86
76460;BME280;65299;46.084;18.762;2024-01-25T20:04:09;101377.47;;;8.77;50.68
76460;BME280;65299;46.084;18.762;2024-01-25T20:07:09;101385.38;;;8.65;51.37
76460;BME280;65299;46.084;18.762;2024-01-25T20:10:10;101378.81;;;8.68;51.50
76460;BME280;65299;46.084;18.762;2024-01-25T20:13:10;101387.44;;;8.63;51.75
76460;BME280;65299;46.084;18.762;2024-01-25T20:16:11;101388.41;;;8.51;51.85
76460;BME280;65299;46.084;18.762;2024-01-25T20:19:12;101388.75;;;8.54;52.04
76460;BME280;65299;46.084;18.762;2024-01-25T20:22:12;101400.66;;;8.45;51.89
76460;BME280;65299;46.084;18.762;2024-01-25T20:25:13;101406.25;;;8.55;52.21
76460;BME280;65299;46.084;18.762;2024-01-25T20:28:13;101402.59;;;8.38;52.27
76460;BME280;65299;46.084;18.762;2024-01-25T20:31:13;101404.06;;;8.34;52.48
76460;BME280;65299;46.084;18.762;2024-01-25T20:34:15;101408.75;;;8.50;52.03
76460;BME280;65299;46.084;18.762;2024-01-25T20:37:15;101400.53;;;8.40;52.15
76460;BME280;65299;46.084;18.762;2024-01-25T20:40:16;101404.13;;;8.46;52.09
76460;BME280;65299;46.084;18.762;2024-01-25T20:43:16;101406.78;;;8.46;51.98
76460;BME280;65299;46.084;18.762;2024-01-25T20:46:17;101389.59;;;8.55;51.75
76460;BME280;65299;46.084;18.762;2024-01-25T20:49:18;101401.41;;;8.52;51.73
76460;BME280;65299;46.084;18.762;2024-01-25T20:52:18;101400.06;;;8.43;52.03
76460;BME280;65299;46.084;18.762;2024-01-25T20:55:18;101390.25;;;8.50;51.81
76460;BME280;65299;46.084;18.762;2024-01-25T20:58:19;101398.81;;;8.64;51.33
76460;BME280;65299;46.084;18.762;2024-01-25T21:01:20;101395.88;;;8.54;51.72
76460;BME280;65299;46.084;18.762;2024-01-25T21:04:20;101406.44;;;8.17;53.38
76460;BME280;65299;46.084;18.762;2024-01-25T21:07:21;101408.63;;;8.02;53.79
76460;BME280;65299;46.084;18.762;2024-01-25T21:10:22;101408.59;;;7.84;54.53
76460;BME280;65299;46.084;18.762;2024-01-25T21:13:23;101412.28;;;7.83;54.63
76460;BME280;65299;46.084;18.762;2024-01-25T21:16:23;101416.25;;;7.68;54.64
76460;BME280;65299;46.084;18.762;2024-01-25T21:19:24;101408.78;;;7.65;55.23
76460;BME280;65299;46.084;18.762;2024-01-25T21:22:24;101424.25;;;7.61;55.26
76460;BME280;65299;46.084;18.762;2024-01-25T21:25:25;101415.34;;;7.55;55.41
76460;BME280;65299;46.084;18.762;2024-01-25T21:28:25;101436.38;;;7.69;55.30
76460;BME280;65299;46.084;18.762;2024-01-25T21:31:26;101441.28;;;7.65;55.00
76460;BME280;65299;46.084;18.762;2024-01-25T21:34:26;101442.47;;;7.69;54.82
76460;BME280;65299;46.084;18.762;2024-01-25T21:37:26;101451.38;;;7.75;54.64
76460;BME280;65299;46.084;18.762;2024-01-25T21:40:28;101454.97;;;7.80;54.60
76460;BME280;65299;46.084;18.762;2024-01-25T21:43:29;101455.19;;;7.54;55.11
76460;BME280;65299;46.084;18.762;2024-01-25T21:46:29;101459.53;;;7.73;54.32
76460;BME280;65299;46.084;18.762;2024-01-25T21:49:29;101472.09;;;7.78;54.50
76460;BME280;65299;46.084;18.762;2024-01-25T21:52:30;101468.09;;;7.69;54.57
76460;BME280;65299;46.084;18.762;2024-01-25T21:55:31;101466.84;;;7.71;54.35
76460;BME280;65299;46.084;18.762;2024-01-25T21:58:32;101463.44;;;7.64;54.47
76460;BME280;65299;46.084;18.762;2024-01-25T22:01:32;101475.41;;;7.67;54.62
76460;BME280;65299;46.084;18.762;2024-01-25T22:04:33;101476.44;;;7.66;54.71
76460;BME280;65299;46.084;18.762;2024-01-25T22:07:33;101480.84;;;7.47;55.30
76460;BME280;65299;46.084;18.762;2024-01-25T22:10:34;101476.88;;;7.31;55.99
76460;BME280;65299;46.084;18.762;2024-01-25T22:13:34;101481.13;;;7.32;56.03
76460;BME280;65299;46.084;18.762;2024-01-25T22:16:34;101484.41;;;7.28;56.33
76460;BME280;65299;46.084;18.762;2024-01-25T22:19:35;101480.97;;;7.21;56.38
76460;BME280;65299;46.084;18.762;2024-01-25T22:22:35;101481.16;;;7.26;56.32
76460;BME280;65299;46.084;18.762;2024-01-25T22:25:36;101495.81;;;7.22;56.36
76460;BME280;65299;46.084;18.762;2024-01-25T22:28:36;101490.28;;;7.30;56.28
76460;BME280;65299;46.084;18.762;2024-01-25T22:31:37;101490.94;;;7.19;56.37
76460;BME280;65299;46.084;18.762;2024-01-25T22:34:37;101498.25;;;7.17;56.09
76460;BME280;65299;46.084;18.762;2024-01-25T22:37:38;101493.75;;;7.30;55.58
76460;BME280;65299;46.084;18.762;2024-01-25T22:40:38;101502.47;;;7.31;55.94
76460;BME280;65299;46.084;18.762;2024-01-25T22:43:39;101501.94;;;7.16;56.23
76460;BME280;65299;46.084;18.762;2024-01-25T22:46:39;101497.84;;;7.20;55.96
76460;BME280;65299;46.084;18.762;2024-01-25T22:49:40;101509.81;;;7.22;55.89
76460;BME280;65299;46.084;18.762;2024-01-25T22:52:40;101500.06;;;7.23;55.93
76460;BME280;65299;46.084;18.762;2024-01-25T22:55:40;101502.91;;;7.21;55.91
76460;BME280;65299;46.084;18.762;2024-01-25T22:58:41;101506.63;;;7.14;55.79
76460;BME280;65299;46.084;18.762;2024-01-25T23:01:41;101512.63;;;7.27;55.53
76460;BME280;65299;46.084;18.762;2024-01-25T23:04:42;101508.97;;;7.28;55.54
76460;BME280;65299;46.084;18.762;2024-01-25T23:07:42;101512.06;;;7.19;55.81
76460;BME280;65299;46.084;18.762;2024-01-25T23:10:43;101508.28;;;7.08;56.31
76460;BME280;65299;46.084;18.762;2024-01-25T23:13:43;101505.19;;;7.18;55.81
76460;BME280;65299;46.084;18.762;2024-01-25T23:16:44;101493.16;;;7.28;55.20
76460;BME280;65299;46.084;18.762;2024-01-25T23:19:44;101486.53;;;7.44;55.04
76460;BME280;65299;46.084;18.762;2024-01-25T23:22:47;101496.97;;;7.32;55.33
76460;BME280;65299;46.084;18.762;2024-01-25T23:25:47;101496.41;;;7.24;55.83
76460;BME280;65299;46.084;18.762;2024-01-25T23:28:48;101498.19;;;7.30;55.73
76460;BME280;65299;46.084;18.762;2024-01-25T23:31:49;101488.03;;;7.33;55.83
76460;BME280;65299;46.084;18.762;2024-01-25T23:34:51;101489.34;;;7.18;55.96
76460;BME280;65299;46.084;18.762;2024-01-25T23:37:52;101480.97;;;7.21;55.94
76460;BME280;65299;46.084;18.762;2024-01-25T23:40:52;101475.69;;;7.21;56.31
76460;BME280;65299;46.084;18.762;2024-01-25T23:43:52;101469.22;;;7.17;56.15
76460;BME280;65299;46.084;18.762;2024-01-25T23:46:53;101478.09;;;7.29;55.67
76460;BME280;65299;46.084;18.762;2024-01-25T23:49:53;101482.56;;;7.35;55.47
76460;BME280;65299;46.084;18.762;2024-01-25T23:52:53;101484.34;;;7.41;55.28
76460;BME280;65299;46.084;18.762;2024-01-25T23:55:54;101483.50;;;7.47;55.35
76460;BME280;65299;46.084;18.762;2024-01-25T23:58:54;101488.63;;;7.35;55.39
